createdAt,value
2023-02-04T00:00:04.554Z,0.00
2023-02-04T00:01:04.533Z,0.00
2023-02-04T00:02:04.501Z,0.00
2023-02-04T00:03:04.512Z,0.00
2023-02-04T00:04:04.458Z,0.00
2023-02-04T00:05:04.439Z,0.00
2023-02-04T00:06:04.447Z,0.00
2023-02-04T00:07:04.383Z,0.00
2023-02-04T00:08:04.468Z,0.00
2023-02-04T00:09:04.333Z,0.00
2023-02-04T00:10:04.304Z,0.00
2023-02-04T00:11:04.293Z,0.00
2023-02-04T00:12:04.254Z,0.00
2023-02-04T00:13:04.335Z,0.00
2023-02-04T00:14:04.208Z,0.00
2023-02-04T00:15:04.181Z,0.00
2023-02-04T00:16:04.257Z,0.00
2023-02-04T00:17:04.162Z,0.00
2023-02-04T00:18:04.112Z,0.00
2023-02-04T00:19:04.081Z,0.00
2023-02-04T00:20:04.072Z,0.00
2023-02-04T00:21:04.034Z,0.00
2023-02-04T00:22:04.031Z,0.00
2023-02-04T00:23:03.985Z,0.00
2023-02-04T00:24:03.963Z,0.00
2023-02-04T00:25:03.931Z,0.00
2023-02-04T00:26:03.917Z,0.00
2023-02-04T00:27:03.907Z,0.00
2023-02-04T00:28:03.917Z,0.00
2023-02-04T00:29:03.837Z,0.00
2023-02-04T00:30:03.808Z,0.00
2023-02-04T00:31:03.825Z,0.00
2023-02-04T00:32:03.818Z,0.00
2023-02-04T00:33:03.836Z,0.00
2023-02-04T00:34:03.729Z,0.00
2023-02-04T00:35:03.685Z,0.00
2023-02-04T00:36:03.654Z,0.00
2023-02-04T00:37:03.632Z,0.00
2023-02-04T00:38:03.608Z,0.00
2023-02-04T00:39:03.588Z,0.00
2023-02-04T00:40:03.575Z,0.00
2023-02-04T00:41:03.572Z,0.00
2023-02-04T00:42:03.506Z,0.00
2023-02-04T00:43:03.489Z,0.00
2023-02-04T00:44:03.456Z,0.00
2023-02-04T00:45:03.437Z,0.00
2023-02-04T00:46:03.456Z,0.00
2023-02-04T00:47:03.392Z,0.00
2023-02-04T00:48:03.363Z,0.00
2023-02-04T00:49:03.329Z,0.00
2023-02-04T00:50:03.315Z,0.00
2023-02-04T00:51:03.357Z,0.00
2023-02-04T00:52:03.274Z,0.00
2023-02-04T00:53:03.238Z,0.00
2023-02-04T00:54:03.222Z,0.00
2023-02-04T00:55:03.180Z,0.00
2023-02-04T00:56:03.162Z,0.00
2023-02-04T00:57:03.128Z,0.00
2023-02-04T00:58:03.117Z,0.00
2023-02-04T00:59:03.103Z,0.00
2023-02-04T01:00:03.059Z,0.00
2023-02-04T01:01:03.071Z,0.00
2023-02-04T01:02:03.010Z,0.00
2023-02-04T01:03:03.015Z,0.00
2023-02-04T01:04:02.968Z,0.00
2023-02-04T01:05:02.946Z,0.00
2023-02-04T01:06:02.916Z,0.00
2023-02-04T01:07:02.916Z,0.00
2023-02-04T01:08:02.879Z,0.00
2023-02-04T01:09:02.830Z,0.00
2023-02-04T01:10:02.870Z,0.00
2023-02-04T01:11:02.808Z,0.00
2023-02-04T01:12:02.768Z,0.00
2023-02-04T01:13:02.753Z,0.00
2023-02-04T01:14:02.719Z,0.00
2023-02-04T01:15:02.726Z,0.00
2023-02-04T01:16:02.699Z,0.00
2023-02-04T01:17:02.640Z,0.00
2023-02-04T01:18:02.657Z,0.00
2023-02-04T01:19:02.593Z,0.00
2023-02-04T01:20:02.578Z,0.00
2023-02-04T01:21:02.548Z,0.00
2023-02-04T01:22:02.552Z,0.00
2023-02-04T01:23:02.494Z,0.00
2023-02-04T01:24:02.469Z,0.00
2023-02-04T01:25:02.478Z,0.00
2023-02-04T01:26:02.426Z,0.00
2023-02-04T01:27:02.388Z,0.00
2023-02-04T01:28:02.417Z,0.00
2023-02-04T01:29:02.343Z,0.00
2023-02-04T01:30:02.330Z,0.00
2023-02-04T01:31:02.302Z,0.00
2023-02-04T01:32:02.351Z,0.00
2023-02-04T01:33:02.251Z,0.00
2023-02-04T01:34:02.228Z,0.00
2023-02-04T01:35:02.197Z,0.00
2023-02-04T01:36:02.175Z,0.00
2023-02-04T01:37:02.152Z,0.00
2023-02-04T01:38:02.127Z,0.00
2023-02-04T01:39:02.090Z,0.00
2023-02-04T01:40:02.114Z,0.00
2023-02-04T01:41:02.045Z,0.00
2023-02-04T01:42:02.024Z,0.00
2023-02-04T01:43:02.020Z,0.00
2023-02-04T01:44:01.983Z,0.00
2023-02-04T01:45:01.998Z,0.00
2023-02-04T01:46:01.997Z,0.00
2023-02-04T01:47:01.892Z,0.00
2023-02-04T01:48:01.933Z,0.00
2023-02-04T01:49:01.852Z,0.00
2023-02-04T01:50:01.823Z,0.00
2023-02-04T01:51:01.801Z,0.00
2023-02-04T01:52:01.790Z,0.00
2023-02-04T01:53:01.759Z,0.00
2023-02-04T01:54:01.755Z,0.00
2023-02-04T01:55:01.706Z,0.00
2023-02-04T01:56:01.702Z,0.00
2023-02-04T01:57:01.650Z,0.00
2023-02-04T01:58:01.622Z,0.00
2023-02-04T01:59:01.597Z,0.00
2023-02-04T02:00:01.607Z,0.00
2023-02-04T02:01:01.580Z,0.00
2023-02-04T02:02:01.610Z,0.00
2023-02-04T02:03:01.497Z,0.00
2023-02-04T02:04:01.492Z,0.00
2023-02-04T02:05:01.465Z,0.00
2023-02-04T02:06:01.422Z,0.00
2023-02-04T02:07:01.397Z,0.00
2023-02-04T02:08:01.371Z,0.00
2023-02-04T02:09:01.353Z,0.00
2023-02-04T02:10:01.325Z,0.00
2023-02-04T02:11:01.309Z,0.00
2023-02-04T02:12:01.269Z,0.00
2023-02-04T02:13:01.281Z,0.00
2023-02-04T02:14:01.225Z,0.00
2023-02-04T02:15:01.190Z,0.00
2023-02-04T02:16:01.178Z,0.00
2023-02-04T02:17:01.213Z,0.00
2023-02-04T02:18:01.124Z,0.00
2023-02-04T02:19:01.093Z,0.00
2023-02-04T02:20:01.076Z,0.00
2023-02-04T02:21:01.066Z,0.00
2023-02-04T02:22:01.020Z,0.00
2023-02-04T02:23:01.028Z,0.00
2023-02-04T02:24:00.971Z,0.00
2023-02-04T02:25:00.966Z,0.00
2023-02-04T02:26:00.926Z,0.00
2023-02-04T02:27:00.892Z,0.00
2023-02-04T02:28:00.929Z,0.00
2023-02-04T02:29:00.842Z,0.00
2023-02-04T02:30:00.850Z,0.00
2023-02-04T02:31:01.007Z,0.00
2023-02-04T02:32:00.786Z,0.00
2023-02-04T02:33:00.752Z,0.00
2023-02-04T02:34:00.719Z,0.00
2023-02-04T02:35:00.705Z,0.00
2023-02-04T02:36:00.675Z,0.00
2023-02-04T02:37:00.650Z,0.00
2023-02-04T02:38:00.642Z,0.00
2023-02-04T02:39:00.587Z,0.00
2023-02-04T02:40:00.595Z,0.00
2023-02-04T02:41:00.550Z,0.00
2023-02-04T02:42:00.529Z,0.00
2023-02-04T02:43:00.493Z,0.00
2023-02-04T02:44:00.470Z,0.00
2023-02-04T02:45:00.461Z,0.00
2023-02-04T02:46:00.458Z,0.00
2023-02-04T02:47:00.389Z,0.00
2023-02-04T02:48:00.370Z,0.00
2023-02-04T02:49:00.359Z,0.00
2023-02-04T02:50:00.346Z,0.00
2023-02-04T02:51:00.282Z,0.00
2023-02-04T02:52:00.279Z,0.00
2023-02-04T02:53:00.237Z,0.00
2023-02-04T02:54:00.220Z,0.00
2023-02-04T02:55:00.200Z,0.00
2023-02-04T02:56:00.163Z,0.00
2023-02-04T02:57:00.135Z,0.00
2023-02-04T02:58:00.112Z,0.00
2023-02-04T02:59:00.104Z,0.00
2023-02-04T03:00:00.075Z,0.00
2023-02-04T03:01:00.758Z,0.00
2023-02-04T03:02:00.019Z,0.00
2023-02-04T03:02:59.983Z,0.00
2023-02-04T03:03:59.960Z,0.00
2023-02-04T03:04:59.930Z,0.00
2023-02-04T03:05:59.914Z,0.00
2023-02-04T03:06:59.905Z,0.00
2023-02-04T03:07:59.861Z,0.00
2023-02-04T03:08:59.833Z,0.00
2023-02-04T03:09:59.807Z,0.00
2023-02-04T03:10:59.780Z,0.00
2023-02-04T03:11:59.767Z,0.00
2023-02-04T03:12:59.732Z,0.00
2023-02-04T03:13:59.707Z,0.00
2023-02-04T03:14:59.697Z,0.00
2023-02-04T03:15:59.761Z,0.00
2023-02-04T03:16:59.623Z,0.00
2023-02-04T03:17:59.606Z,0.00
2023-02-04T03:18:59.591Z,0.00
2023-02-04T03:19:59.564Z,0.00
2023-02-04T03:20:59.526Z,0.00
2023-02-04T03:21:59.504Z,0.00
2023-02-04T03:22:59.476Z,0.00
2023-02-04T03:23:59.455Z,0.00
2023-02-04T03:24:59.426Z,0.00
2023-02-04T03:25:59.407Z,0.00
2023-02-04T03:26:59.388Z,0.00
2023-02-04T03:27:59.414Z,0.00
2023-02-04T03:28:59.409Z,0.00
2023-02-04T03:29:59.304Z,0.00
2023-02-04T03:30:59.367Z,0.00
2023-02-04T03:31:59.359Z,0.00
2023-02-04T03:32:59.221Z,0.00
2023-02-04T03:33:59.204Z,0.00
2023-02-04T03:34:59.180Z,0.00
2023-02-04T03:35:59.156Z,0.00
2023-02-04T03:36:59.121Z,0.00
2023-02-04T03:37:59.120Z,0.00
2023-02-04T03:38:59.070Z,0.00
2023-02-04T03:39:59.051Z,0.00
2023-02-04T03:40:59.021Z,0.00
2023-02-04T03:41:59.003Z,0.00
2023-02-04T03:42:58.978Z,0.00
2023-02-04T03:43:58.952Z,0.00
2023-02-04T03:44:58.927Z,0.00
2023-02-04T03:45:58.934Z,0.00
2023-02-04T03:46:58.869Z,0.00
2023-02-04T03:47:58.849Z,0.00
2023-02-04T03:48:58.862Z,0.00
2023-02-04T03:49:58.795Z,0.00
2023-02-04T03:50:58.787Z,0.00
2023-02-04T03:51:58.751Z,0.00
2023-02-04T03:52:58.794Z,0.00
2023-02-04T03:53:58.699Z,0.00
2023-02-04T03:54:58.666Z,0.00
2023-02-04T03:55:58.650Z,0.00
2023-02-04T03:56:58.627Z,0.00
2023-02-04T03:57:58.605Z,0.00
2023-02-04T03:58:58.568Z,0.00
2023-02-04T03:59:58.560Z,0.00
2023-02-04T04:00:58.540Z,0.00
2023-02-04T04:01:58.549Z,0.00
2023-02-04T04:02:58.542Z,0.00
2023-02-04T04:03:58.440Z,0.00
2023-02-04T04:04:58.430Z,0.00
2023-02-04T04:05:58.389Z,0.00
2023-02-04T04:06:58.360Z,0.00
2023-02-04T04:07:58.343Z,0.00
2023-02-04T04:08:58.316Z,0.00
2023-02-04T04:09:58.343Z,0.00
2023-02-04T04:10:58.267Z,0.00
2023-02-04T04:11:58.249Z,0.00
2023-02-04T04:12:58.213Z,0.00
2023-02-04T04:13:58.186Z,0.00
2023-02-04T04:14:58.154Z,0.00
2023-02-04T04:15:58.206Z,0.00
2023-02-04T04:16:58.111Z,0.00
2023-02-04T04:17:58.080Z,0.00
2023-02-04T04:18:58.052Z,0.00
2023-02-04T04:19:58.037Z,0.00
2023-02-04T04:20:58.008Z,0.00
2023-02-04T04:21:57.982Z,0.00
2023-02-04T04:22:58.038Z,0.00
2023-02-04T04:23:57.933Z,0.00
2023-02-04T04:24:57.904Z,0.00
2023-02-04T04:25:57.901Z,0.00
2023-02-04T04:26:57.876Z,0.00
2023-02-04T04:27:57.892Z,0.00
2023-02-04T04:28:57.806Z,0.00
2023-02-04T04:29:57.811Z,0.00
2023-02-04T04:30:57.794Z,0.00
2023-02-04T04:31:57.779Z,0.00
2023-02-04T04:32:57.697Z,0.00
2023-02-04T04:33:57.674Z,0.00
2023-02-04T04:34:57.653Z,0.00
2023-02-04T04:35:57.621Z,0.00
2023-02-04T04:36:57.583Z,0.00
2023-02-04T04:37:57.578Z,0.00
2023-02-04T04:38:57.529Z,0.00
2023-02-04T04:39:57.513Z,0.00
2023-02-04T04:40:57.485Z,0.00
2023-02-04T04:41:57.476Z,0.00
2023-02-04T04:42:57.439Z,0.00
2023-02-04T04:43:57.413Z,0.00
2023-02-04T04:44:57.378Z,0.00
2023-02-04T04:45:57.360Z,0.00
2023-02-04T04:46:57.400Z,0.00
2023-02-04T04:47:57.309Z,0.00
2023-02-04T04:48:57.280Z,0.00
2023-02-04T04:49:57.255Z,0.00
2023-02-04T04:50:57.234Z,0.00
2023-02-04T04:51:57.204Z,0.00
2023-02-04T04:52:57.178Z,0.00
2023-02-04T04:53:57.170Z,0.00
2023-02-04T04:54:57.130Z,0.00
2023-02-04T04:55:57.098Z,0.00
2023-02-04T04:56:57.074Z,0.00
2023-02-04T04:57:57.050Z,0.00
2023-02-04T04:58:57.021Z,0.00
2023-02-04T04:59:56.993Z,0.00
2023-02-04T05:00:57.011Z,0.00
2023-02-04T05:01:56.946Z,0.00
2023-02-04T05:02:56.916Z,0.00
2023-02-04T05:03:56.914Z,0.00
2023-02-04T05:04:56.935Z,0.00
2023-02-04T05:05:56.863Z,0.00
2023-02-04T05:06:56.821Z,0.00
2023-02-04T05:07:56.793Z,0.00
2023-02-04T05:08:56.783Z,0.00
2023-02-04T05:09:56.746Z,0.00
2023-02-04T05:10:56.730Z,0.00
2023-02-04T05:11:56.695Z,0.00
2023-02-04T05:12:56.682Z,0.00
2023-02-04T05:13:56.654Z,0.00
2023-02-04T05:14:56.621Z,0.00
2023-02-04T05:15:56.650Z,0.00
2023-02-04T05:16:56.566Z,0.00
2023-02-04T05:17:56.545Z,0.00
2023-02-04T05:18:56.519Z,0.00
2023-02-04T05:19:56.487Z,0.00
2023-02-04T05:20:56.470Z,0.00
2023-02-04T05:21:56.432Z,0.00
2023-02-04T05:22:56.412Z,0.00
2023-02-04T05:23:56.391Z,0.00
2023-02-04T05:24:56.365Z,0.00
2023-02-04T05:25:56.332Z,0.00
2023-02-04T05:26:56.307Z,0.00
2023-02-04T05:27:56.310Z,0.00
2023-02-04T05:28:56.268Z,0.00
2023-02-04T05:29:56.231Z,0.00
2023-02-04T05:30:56.268Z,0.00
2023-02-04T05:31:56.244Z,0.00
2023-02-04T05:32:56.157Z,0.00
2023-02-04T05:33:56.126Z,0.00
2023-02-04T05:34:56.110Z,0.00
2023-02-04T05:35:56.078Z,0.00
2023-02-04T05:36:56.055Z,0.00
2023-02-04T05:37:56.019Z,0.00
2023-02-04T05:38:55.997Z,0.00
2023-02-04T05:39:55.967Z,0.00
2023-02-04T05:40:55.945Z,0.00
2023-02-04T05:41:55.910Z,0.00
2023-02-04T05:42:55.892Z,0.00
2023-02-04T05:43:55.866Z,0.00
2023-02-04T05:44:55.841Z,0.00
2023-02-04T05:45:55.868Z,0.00
2023-02-04T05:46:55.790Z,0.00
2023-02-04T05:47:55.768Z,0.00
2023-02-04T05:48:55.733Z,0.00
2023-02-04T05:49:55.708Z,0.00
2023-02-04T05:50:55.686Z,0.00
2023-02-04T05:51:55.657Z,0.00
2023-02-04T05:52:55.636Z,0.00
2023-02-04T05:53:55.602Z,0.00
2023-02-04T05:54:55.604Z,0.00
2023-02-04T05:55:55.558Z,0.00
2023-02-04T05:56:55.563Z,0.00
2023-02-04T05:57:55.536Z,0.00
2023-02-04T05:58:55.489Z,0.00
2023-02-04T05:59:55.457Z,0.00
2023-02-04T06:00:55.432Z,0.00
2023-02-04T06:01:55.396Z,0.00
2023-02-04T06:02:55.387Z,0.00
2023-02-04T06:03:55.367Z,0.00
2023-02-04T06:04:55.339Z,0.00
2023-02-04T06:05:55.300Z,0.00
2023-02-04T06:06:55.260Z,0.00
2023-02-04T06:07:55.243Z,0.00
2023-02-04T06:08:55.221Z,0.00
2023-02-04T06:09:55.183Z,0.00
2023-02-04T06:10:55.157Z,0.00
2023-02-04T06:11:55.133Z,0.00
2023-02-04T06:12:55.106Z,0.00
2023-02-04T06:13:55.093Z,0.00
2023-02-04T06:14:55.057Z,0.00
2023-02-04T06:15:55.032Z,0.00
2023-02-04T06:16:55.046Z,0.00
2023-02-04T06:17:54.975Z,0.00
2023-02-04T06:18:54.951Z,0.00
2023-02-04T06:19:54.930Z,0.00
2023-02-04T06:20:54.903Z,4.00
2023-02-04T06:21:54.877Z,0.00
2023-02-04T06:22:54.854Z,0.00
2023-02-04T06:23:54.817Z,4.00
2023-02-04T06:24:54.815Z,4.00
2023-02-04T06:25:54.767Z,0.00
2023-02-04T06:26:54.735Z,4.00
2023-02-04T06:27:54.765Z,4.00
2023-02-04T06:28:54.694Z,4.00
2023-02-04T06:29:54.688Z,8.00
2023-02-04T06:30:54.708Z,12.00
2023-02-04T06:31:54.698Z,8.00
2023-02-04T06:32:54.588Z,12.00
2023-02-04T06:33:54.549Z,12.00
2023-02-04T06:34:54.533Z,16.00
2023-02-04T06:35:54.523Z,20.00
2023-02-04T06:36:54.501Z,20.00
2023-02-04T06:37:54.443Z,24.00
2023-02-04T06:38:54.446Z,32.00
2023-02-04T06:39:54.408Z,36.00
2023-02-04T06:40:54.388Z,40.00
2023-02-04T06:41:54.420Z,44.00
2023-02-04T06:42:54.331Z,52.00
2023-02-04T06:43:54.300Z,60.00
2023-02-04T06:44:54.278Z,72.00
2023-02-04T06:45:54.262Z,76.00
2023-02-04T06:46:54.218Z,88.00
2023-02-04T06:47:54.184Z,104.00
2023-02-04T06:48:54.166Z,112.00
2023-02-04T06:49:54.146Z,128.00
2023-02-04T06:50:54.113Z,136.00
2023-02-04T06:51:54.086Z,152.00
2023-02-04T06:52:54.059Z,164.00
2023-02-04T06:53:54.029Z,172.00
2023-02-04T06:54:54.009Z,188.00
2023-02-04T06:55:53.972Z,204.00
2023-02-04T06:56:53.963Z,216.00
2023-02-04T06:57:53.925Z,232.00
2023-02-04T06:58:53.949Z,248.00
2023-02-04T06:59:53.879Z,268.00
2023-02-04T07:00:53.854Z,288.00
2023-02-04T07:01:53.821Z,308.00
2023-02-04T07:02:53.864Z,328.00
2023-02-04T07:03:53.772Z,344.00
2023-02-04T07:04:53.744Z,368.00
2023-02-04T07:05:53.728Z,384.00
2023-02-04T07:06:53.699Z,376.00
2023-02-04T07:07:53.696Z,364.00
2023-02-04T07:08:53.646Z,344.00
2023-02-04T07:09:53.610Z,328.00
2023-02-04T07:10:53.591Z,320.00
2023-02-04T07:11:53.561Z,320.00
2023-02-04T07:12:53.557Z,296.00
2023-02-04T07:13:53.512Z,292.00
2023-02-04T07:14:53.483Z,284.00
2023-02-04T07:15:53.586Z,280.00
2023-02-04T07:16:53.449Z,288.00
2023-02-04T07:17:53.396Z,312.00
2023-02-04T07:18:53.382Z,364.00
2023-02-04T07:19:53.345Z,400.00
2023-02-04T07:20:53.328Z,472.00
2023-02-04T07:21:53.293Z,548.00
2023-02-04T07:22:53.271Z,620.00
2023-02-04T07:23:53.250Z,676.00
2023-02-04T07:24:53.224Z,708.00
2023-02-04T07:25:53.199Z,728.00
2023-02-04T07:26:53.448Z,704.00
2023-02-04T07:27:53.153Z,660.00
2023-02-04T07:28:53.146Z,596.00
2023-02-04T07:29:53.102Z,552.00
2023-02-04T07:30:53.251Z,568.00
2023-02-04T07:31:53.342Z,556.00
2023-02-04T07:32:53.023Z,548.00
2023-02-04T07:33:52.983Z,528.00
2023-02-04T07:34:52.963Z,528.00
2023-02-04T07:35:52.953Z,524.00
2023-02-04T07:36:52.992Z,492.00
2023-02-04T07:37:52.883Z,516.00
2023-02-04T07:38:52.852Z,540.00
2023-02-04T07:39:52.829Z,556.00
2023-02-04T07:40:52.800Z,528.00
2023-02-04T07:41:52.769Z,524.00
2023-02-04T07:42:52.748Z,524.00
2023-02-04T07:43:52.711Z,536.00
2023-02-04T07:44:52.711Z,544.00
2023-02-04T07:45:52.660Z,588.00
2023-02-04T07:46:52.651Z,680.00
2023-02-04T07:47:52.617Z,792.00
2023-02-04T07:48:52.587Z,884.00
2023-02-04T07:49:52.556Z,960.00
2023-02-04T07:50:52.544Z,1020.00
2023-02-04T07:51:52.506Z,1072.00
2023-02-04T07:52:52.484Z,1092.00
2023-02-04T07:53:52.475Z,1144.00
2023-02-04T07:54:52.429Z,1240.00
2023-02-04T07:55:52.398Z,1348.00
2023-02-04T07:56:52.379Z,1492.00
2023-02-04T07:57:52.357Z,1612.00
2023-02-04T07:58:52.332Z,1796.00
2023-02-04T07:59:52.292Z,1880.00
2023-02-04T08:00:52.283Z,1892.00
2023-02-04T08:01:52.289Z,1704.00
2023-02-04T08:02:52.277Z,1616.00
2023-02-04T08:03:52.217Z,1584.00
2023-02-04T08:04:52.166Z,1624.00
2023-02-04T08:05:52.136Z,1640.00
2023-02-04T08:06:52.119Z,1632.00
2023-02-04T08:07:52.092Z,1736.00
2023-02-04T08:08:52.066Z,1764.00
2023-02-04T08:09:52.037Z,1776.00
2023-02-04T08:10:52.013Z,1820.00
2023-02-04T08:11:51.986Z,1852.00
2023-02-04T08:12:51.962Z,1880.00
2023-02-04T08:13:51.930Z,1928.00
2023-02-04T08:14:51.905Z,1988.00
2023-02-04T08:15:51.908Z,2020.00
2023-02-04T08:16:51.867Z,2072.00
2023-02-04T08:17:51.826Z,2072.00
2023-02-04T08:18:51.804Z,2100.00
2023-02-04T08:19:51.776Z,2176.00
2023-02-04T08:20:51.755Z,2116.00
2023-02-04T08:21:52.785Z,2016.00
2023-02-04T08:22:51.707Z,1980.00
2023-02-04T08:23:51.673Z,2104.00
2023-02-04T08:24:51.740Z,2316.00
2023-02-04T08:25:51.625Z,2284.00
2023-02-04T08:26:51.895Z,2680.00
2023-02-04T08:27:51.631Z,2880.00
2023-02-04T08:28:51.544Z,2920.00
2023-02-04T08:29:51.527Z,2756.00
2023-02-04T08:30:51.554Z,2780.00
2023-02-04T08:31:51.560Z,2804.00
2023-02-04T08:32:51.444Z,2812.00
2023-02-04T08:33:51.409Z,2972.00
2023-02-04T08:34:51.390Z,3440.00
2023-02-04T08:35:51.360Z,4504.00
2023-02-04T08:36:51.340Z,5068.00
2023-02-04T08:37:51.307Z,4708.00
2023-02-04T08:38:51.309Z,4256.00
2023-02-04T08:39:51.254Z,4224.00
2023-02-04T08:40:51.234Z,4212.00
2023-02-04T08:41:51.201Z,4672.00
2023-02-04T08:42:51.184Z,5052.00
2023-02-04T08:43:51.153Z,4908.00
2023-02-04T08:44:51.139Z,4768.00
2023-02-04T08:45:51.118Z,4108.00
2023-02-04T08:46:51.135Z,3168.00
2023-02-04T08:47:51.054Z,2708.00
2023-02-04T08:48:51.059Z,2856.00
2023-02-04T08:49:51.011Z,3324.00
2023-02-04T08:50:50.990Z,3728.00
2023-02-04T08:51:50.984Z,4000.00
2023-02-04T08:52:50.949Z,4260.00
2023-02-04T08:53:50.918Z,4828.00
2023-02-04T08:54:50.902Z,5124.00
2023-02-04T08:55:50.873Z,5236.00
2023-02-04T08:56:50.850Z,4968.00
2023-02-04T08:57:50.821Z,4904.00
2023-02-04T08:58:50.802Z,5236.00
2023-02-04T08:59:50.769Z,5552.00
2023-02-04T09:00:50.841Z,5792.00
2023-02-04T09:01:51.245Z,6280.00
2023-02-04T09:02:50.703Z,6612.00
2023-02-04T09:03:50.682Z,6788.00
2023-02-04T09:04:50.653Z,6852.00
2023-02-04T09:05:50.621Z,6620.00
2023-02-04T09:06:50.603Z,6404.00
2023-02-04T09:07:50.587Z,6208.00
2023-02-04T09:08:50.553Z,6096.00
2023-02-04T09:09:50.525Z,5948.00
2023-02-04T09:10:50.503Z,6264.00
2023-02-04T09:11:50.494Z,6304.00
2023-02-04T09:12:50.460Z,6056.00
2023-02-04T09:13:50.433Z,5992.00
2023-02-04T09:14:50.411Z,5980.00
2023-02-04T09:15:50.418Z,6024.00
2023-02-04T09:16:50.372Z,6176.00
2023-02-04T09:17:50.334Z,6676.00
2023-02-04T09:18:50.308Z,7136.00
2023-02-04T09:19:50.286Z,7180.00
2023-02-04T09:20:50.265Z,6872.00
2023-02-04T09:21:50.233Z,7128.00
2023-02-04T09:22:50.237Z,7356.00
2023-02-04T09:23:50.217Z,7416.00
2023-02-04T09:24:50.170Z,12832.00
2023-02-04T09:25:50.140Z,7820.00
2023-02-04T09:26:50.110Z,7532.00
2023-02-04T09:27:50.185Z,7580.00
2023-02-04T09:28:50.067Z,7396.00
2023-02-04T09:29:50.063Z,7084.00
2023-02-04T09:30:50.093Z,6908.00
2023-02-04T09:31:50.110Z,6840.00
2023-02-04T09:32:49.982Z,6748.00
2023-02-04T09:33:49.953Z,6824.00
2023-02-04T09:34:49.968Z,6328.00
2023-02-04T09:35:49.895Z,5900.00
2023-02-04T09:36:49.868Z,5760.00
2023-02-04T09:37:49.851Z,6044.00
2023-02-04T09:38:49.819Z,6596.00
2023-02-04T09:39:49.825Z,7908.00
2023-02-04T09:40:49.777Z,9136.00
2023-02-04T09:41:49.767Z,10128.00
2023-02-04T09:42:49.749Z,11408.00
2023-02-04T09:43:49.704Z,13256.00
2023-02-04T09:44:49.684Z,13528.00
2023-02-04T09:45:49.718Z,14488.00
2023-02-04T09:46:49.632Z,13492.00
2023-02-04T09:47:49.610Z,12740.00
2023-02-04T09:48:49.596Z,13896.00
2023-02-04T09:49:49.580Z,17792.00
2023-02-04T09:50:49.541Z,21984.00
2023-02-04T09:51:49.521Z,20096.00
2023-02-04T09:52:49.486Z,15860.00
2023-02-04T09:53:49.458Z,17760.00
2023-02-04T09:54:49.461Z,14592.00
2023-02-04T09:55:49.429Z,13004.00
2023-02-04T09:56:49.390Z,12404.00
2023-02-04T09:57:49.359Z,13156.00
2023-02-04T09:58:49.340Z,14288.00
2023-02-04T09:59:49.309Z,13692.00
2023-02-04T10:00:49.348Z,13992.00
2023-02-04T10:01:49.259Z,13008.00
2023-02-04T10:02:49.229Z,12784.00
2023-02-04T10:03:49.321Z,11228.00
2023-02-04T10:04:49.182Z,10136.00
2023-02-04T10:05:49.184Z,9436.00
2023-02-04T10:06:49.131Z,8936.00
2023-02-04T10:07:49.114Z,8892.00
2023-02-04T10:08:49.094Z,9968.00
2023-02-04T10:09:49.062Z,14176.00
2023-02-04T10:10:49.057Z,14496.00
2023-02-04T10:11:49.025Z,13608.00
2023-02-04T10:12:49.015Z,14484.00
2023-02-04T10:13:48.972Z,21248.00
2023-02-04T10:14:48.935Z,18944.00
2023-02-04T10:15:48.944Z,21632.00
2023-02-04T10:16:48.941Z,20736.00
2023-02-04T10:17:48.873Z,24544.00
2023-02-04T10:18:48.867Z,22624.00
2023-02-04T10:19:48.827Z,20416.00
2023-02-04T10:20:48.802Z,19264.00
2023-02-04T10:21:48.790Z,24000.00
2023-02-04T10:22:50.280Z,20160.00
2023-02-04T10:23:48.734Z,16528.00
2023-02-04T10:24:48.706Z,15496.00
2023-02-04T10:25:48.684Z,18528.00
2023-02-04T10:26:48.659Z,17760.00
2023-02-04T10:27:48.674Z,16612.00
2023-02-04T10:28:48.618Z,18144.00
2023-02-04T10:29:48.607Z,15816.00
2023-02-04T10:30:48.689Z,14664.00
2023-02-04T10:31:48.698Z,12464.00
2023-02-04T10:32:48.534Z,12100.00
2023-02-04T10:33:48.541Z,11644.00
2023-02-04T10:34:48.506Z,11196.00
2023-02-04T10:35:48.481Z,11216.00
2023-02-04T10:36:48.481Z,11020.00
2023-02-04T10:37:48.460Z,10516.00
2023-02-04T10:38:48.403Z,10632.00
2023-02-04T10:39:48.379Z,10684.00
2023-02-04T10:40:48.349Z,11228.00
2023-02-04T10:41:49.817Z,12356.00
2023-02-04T10:42:48.307Z,14752.00
2023-02-04T10:43:48.292Z,13376.00
2023-02-04T10:44:48.279Z,14908.00
2023-02-04T10:45:48.266Z,20864.00
2023-02-04T10:46:48.230Z,18112.00
2023-02-04T10:47:48.194Z,13720.00
2023-02-04T10:48:48.214Z,15488.00
2023-02-04T10:49:48.162Z,15404.00
2023-02-04T10:50:48.159Z,18368.00
2023-02-04T10:51:48.116Z,18752.00
2023-02-04T10:52:48.082Z,18944.00
2023-02-04T10:53:48.064Z,23840.00
2023-02-04T10:54:48.035Z,28160.00
2023-02-04T10:55:48.036Z,22464.00
2023-02-04T10:56:48.009Z,23520.00
2023-02-04T10:57:47.982Z,18016.00
2023-02-04T10:58:47.939Z,22880.00
2023-02-04T10:59:47.955Z,18272.00
2023-02-04T11:00:47.897Z,27712.00
2023-02-04T11:01:47.883Z,18304.00
2023-02-04T11:02:47.861Z,13800.00
2023-02-04T11:03:48.925Z,12608.00
2023-02-04T11:04:47.812Z,12852.00
2023-02-04T11:05:47.791Z,13536.00
2023-02-04T11:06:47.765Z,14176.00
2023-02-04T11:07:47.751Z,16164.00
2023-02-04T11:08:47.724Z,18080.00
2023-02-04T11:09:48.739Z,20416.00
2023-02-04T11:10:47.714Z,15992.00
2023-02-04T11:11:47.666Z,21312.00
2023-02-04T11:12:47.641Z,21952.00
2023-02-04T11:13:47.618Z,25024.00
2023-02-04T11:14:47.595Z,30112.00
2023-02-04T11:15:50.401Z,25696.00
2023-02-04T11:16:47.550Z,24832.00
2023-02-04T11:17:47.582Z,20736.00
2023-02-04T11:18:47.513Z,16152.00
2023-02-04T11:19:47.485Z,15416.00
2023-02-04T11:20:47.476Z,15716.00
2023-02-04T11:21:47.450Z,14856.00
2023-02-04T11:22:47.439Z,12376.00
2023-02-04T11:23:47.407Z,11796.00
2023-02-04T11:24:47.380Z,11648.00
2023-02-04T11:25:47.362Z,13216.00
2023-02-04T11:26:47.332Z,15360.00
2023-02-04T11:27:47.374Z,23776.00
2023-02-04T11:28:47.307Z,16460.00
2023-02-04T11:29:47.281Z,16328.00
2023-02-04T11:30:47.300Z,14012.00
2023-02-04T11:31:47.405Z,13684.00
2023-02-04T11:32:47.219Z,14120.00
2023-02-04T11:33:47.221Z,18496.00
2023-02-04T11:34:47.167Z,15400.00
2023-02-04T11:35:47.187Z,14704.00
2023-02-04T11:36:47.126Z,14620.00
2023-02-04T11:37:47.118Z,14236.00
2023-02-04T11:38:47.109Z,13408.00
2023-02-04T11:39:47.076Z,11488.00
2023-02-04T11:40:47.050Z,10344.00
2023-02-04T11:41:47.039Z,10808.00
2023-02-04T11:42:46.997Z,11864.00
2023-02-04T11:43:46.985Z,11868.00
2023-02-04T11:44:46.978Z,12324.00
2023-02-04T11:45:46.993Z,12976.00
2023-02-04T11:46:46.941Z,13248.00
2023-02-04T11:47:46.897Z,13840.00
2023-02-04T11:48:46.872Z,11816.00
2023-02-04T11:49:46.861Z,10224.00
2023-02-04T11:50:46.834Z,10824.00
2023-02-04T11:51:46.817Z,12452.00
2023-02-04T11:52:46.803Z,12572.00
2023-02-04T11:53:46.806Z,12708.00
2023-02-04T11:54:46.744Z,13192.00
2023-02-04T11:55:47.689Z,13240.00
2023-02-04T11:56:46.710Z,12828.00
2023-02-04T11:57:46.702Z,12804.00
2023-02-04T11:58:46.666Z,12516.00
2023-02-04T11:59:46.654Z,12872.00
2023-02-04T12:00:46.685Z,13040.00
2023-02-04T12:01:46.607Z,13812.00
2023-02-04T12:02:46.685Z,14080.00
2023-02-04T12:03:46.604Z,14564.00
2023-02-04T12:04:46.560Z,23712.00
2023-02-04T12:05:46.518Z,14868.00
2023-02-04T12:06:46.495Z,14064.00
2023-02-04T12:07:46.502Z,14252.00
2023-02-04T12:08:46.461Z,15852.00
2023-02-04T12:09:46.446Z,14228.00
2023-02-04T12:10:46.411Z,13692.00
2023-02-04T12:11:46.415Z,13968.00
2023-02-04T12:12:46.386Z,14692.00
2023-02-04T12:13:46.361Z,15292.00
2023-02-04T12:14:46.327Z,15080.00
2023-02-04T12:15:46.331Z,13624.00
2023-02-04T12:16:46.291Z,12928.00
2023-02-04T12:17:46.270Z,11092.00
2023-02-04T12:18:46.246Z,10704.00
2023-02-04T12:19:46.243Z,10260.00
2023-02-04T12:20:46.198Z,9560.00
2023-02-04T12:21:46.186Z,9400.00
2023-02-04T12:22:46.169Z,9856.00
2023-02-04T12:23:46.138Z,9908.00
2023-02-04T12:24:46.114Z,9872.00
2023-02-04T12:25:46.092Z,10212.00
2023-02-04T12:26:46.072Z,10256.00
2023-02-04T12:27:46.062Z,10300.00
2023-02-04T12:28:46.030Z,9488.00
2023-02-04T12:29:46.006Z,9100.00
2023-02-04T12:30:46.000Z,9020.00
2023-02-04T12:31:46.136Z,9244.00
2023-02-04T12:32:45.960Z,9556.00
2023-02-04T12:33:45.909Z,9776.00
2023-02-04T12:34:45.893Z,9796.00
2023-02-04T12:35:45.865Z,9656.00
2023-02-04T12:36:45.843Z,9396.00
2023-02-04T12:37:45.815Z,9232.00
2023-02-04T12:38:45.791Z,9132.00